Birmingham, AL (35231)

6:11 AM CST on February 10, 2016 (GMT -0600)
Adamsville | | Change Station
CLOSE
Current Station
Personal Weather Station
Location: Adamsville, AL
Elevation: 659 ft
Nearby Weather Stations

Elev 659 ft 33.60 °N, 86.96 °W | Updated 29 seconds ago

Clear
Clear
21.0 °F
Feels Like 16 °F
N
3.7
Wind Variable Wind from SW

Today
High -- | Low -- °F
--% Chance of Precip.
Yesterday
High -- | Low -- °F
Precip. -- in
Pressure 30.22 in
Visibility 10.0 miles
Clouds Clear
Windchill 16 °F
Dew Point 16 °F
Humidity 81%
Rainfall 0.00 in
Snow Depth Not available.
6:36 AM 5:27 PM
Waxing Crescent, 5% visible
METAR KBHM 101153Z 29007KT 10SM CLR M05/M09 A3020 RMK AO2 SLP233 T10501094 11028 21050 53016
Pressure 30.22 in
Visibility 10.0 miles
Clouds Clear
Windchill 16 °F
Dew Point 16 °F
Humidity 81%
Rainfall 0.00 in
Snow Depth Not available.
6:36 AM 5:27 PM
Waxing Crescent, 5% visible
METAR KBHM 101153Z 29007KT 10SM CLR M05/M09 A3020 RMK AO2 SLP233 T10501094 11028 21050 53016

10-Day Weather Forecast

Almanac

Astronomy

Feb. 10, 2016 Rise Set
Actual Time
Civil Twilight
Nautical Twilight
Astronomical Twilight
Moon
Length of Visible Light
Length of Day
Tomorrow will be .
, % of the Moon is Illuminated

Today's Extremes

State Highs State Lows

Community

WunderPhotos

Upload Photos

1,891,834 photos uploaded!

WunderBlog® & News

Nearby

Air Quality

  Air Quality AQ Index Pollutant
Not available.

Snow Depth

Station Depth Elevation

Earthquake Activity

City Distance Mag. Time & Date
Minimum magnitude displayed is 2.5.

Coastal Water Temperatures

Place Temperature

Stations

Nearby Weather Stations

Station Location Temp. Windchill Dew Point Humidity Wind Precip. Elev Updated Type
                   

Watches & Warnings

There are currently no watches in effect.